Time;durP1;ratioP1;P1;durP2;ratioP2;P2;SDS_P1;SDS_P2;PMS_P1;PMS_P2;Temp;Humidity;BMP_temperature;BMP_pressure;BME280_temperature;BME280_humidity;BME280_pressure;Samples;Min_cycle;Max_cycle;Signal;HPM_P1;HPM_P2
2022/01/19 00:01:49;;;;;;;14.40;5.50;;;;;;;1.82;83.20;102404.79;1626659;88;21615;-72
2022/01/19 00:04:15;;;;;;;11.33;5.03;;;;;;;1.84;83.17;102403.59;1615746;88;21001;-72
2022/01/19 00:06:41;;;;;;;19.75;5.03;;;;;;;1.86;83.22;102400.71;1584915;90;21652;-72
2022/01/19 00:09:07;;;;;;;13.40;5.10;;;;;;;1.88;83.21;102399.98;1624476;88;21489;-72
2022/01/19 00:11:33;;;;;;;12.18;4.78;;;;;;;1.89;83.24;102395.36;1594925;89;21564;-72
2022/01/19 00:13:59;;;;;;;13.00;5.47;;;;;;;1.92;83.24;102390.41;1612882;88;20946;-72
2022/01/19 00:16:25;;;;;;;15.58;5.92;;;;;;;1.93;83.21;102383.63;1622904;88;21567;-72
2022/01/19 00:18:51;;;;;;;67.27;15.93;;;;;;;1.94;83.25;102372.62;1616745;88;21544;-72
2022/01/19 00:21:17;;;;;;;15.08;7.35;;;;;;;1.95;83.23;102385.45;1622094;88;21575;-72
2022/01/19 00:23:43;;;;;;;19.35;6.28;;;;;;;1.98;83.26;102383.44;1613999;88;21020;-72
2022/01/19 00:26:11;;;;;;;14.10;5.08;;;;;;;1.99;83.27;102379.69;1618989;88;21449;-72
2022/01/19 00:28:38;;;;;;;13.70;5.67;;;;;;;2.02;83.51;102381.91;1625476;88;21017;-72
2022/01/19 00:31:03;;;;;;;10.90;5.53;;;;;;;2.02;83.51;102381.91;1626244;88;21544;-72
2022/01/19 00:33:29;;;;;;;14.53;6.03;;;;;;;2.03;83.30;102364.52;1617240;87;20951;-72
2022/01/19 00:35:56;;;;;;;10.98;4.28;;;;;;;2.02;83.26;102356.00;1616832;87;21594;-72
2022/01/19 00:38:22;;;;;;;12.18;5.12;;;;;;;2.03;83.28;102358.14;1618597;87;21429;-72
2022/01/19 00:40:49;;;;;;;11.13;4.73;;;;;;;2.03;83.27;102351.36;1630708;87;20918;-72
2022/01/19 00:43:16;;;;;;;9.73;4.37;;;;;;;2.04;83.30;102349.29;1623462;87;21714;-72
2022/01/19 00:45:43;;;;;;;14.28;5.05;;;;;;;2.05;83.25;102347.20;1630357;87;20982;-72
2022/01/19 00:48:09;;;;;;;17.45;5.62;;;;;;;2.05;83.30;102345.94;1621279;87;20929;-72
2022/01/19 00:50:36;;;;;;;10.30;4.53;;;;;;;2.06;83.31;102344.26;1592442;89;20950;-72
2022/01/19 00:53:02;;;;;;;14.60;5.22;;;;;;;2.06;83.32;102342.98;1631485;87;21408;-72
2022/01/19 00:55:28;;;;;;;16.30;4.97;;;;;;;2.09;83.28;102349.47;1622371;87;21413;-72
2022/01/19 00:57:55;;;;;;;12.82;5.03;;;;;;;2.08;83.34;102343.49;1622354;87;20999;-72
2022/01/19 01:00:24;;;;;;;;;;;;;;;2.09;83.38;102350.34;1633543;87;21508;-72
2022/01/19 01:02:50;;;;;;;13.20;5.62;;;;;;;2.10;83.43;102352.09;1606153;89;20579;-72
2022/01/19 01:05:17;;;;;;;10.45;5.05;;;;;;;2.11;83.40;102347.46;1590883;89;20944;-72
2022/01/19 01:07:43;;;;;;;13.65;5.15;;;;;;;2.11;83.41;102344.03;1629381;87;20945;-72
2022/01/19 01:10:14;;;;;;;11.68;4.75;;;;;;;2.14;83.42;102340.34;1630836;87;26391;-72
2022/01/19 01:20:36;;;;;;;13.38;4.72;;;;;;;2.17;83.42;102320.95;1593608;89;21607;-72
2022/01/19 01:23:05;;;;;;;12.65;4.78;;;;;;;2.18;83.42;102314.16;1589069;89;20990;-72
2022/01/19 01:25:32;;;;;;;12.50;4.00;;;;;;;2.19;83.39;102305.70;1587313;89;21493;-72
2022/01/19 01:27:58;;;;;;;10.55;4.10;;;;;;;2.19;83.41;102297.65;1594604;89;21590;-72
2022/01/19 01:30:25;;;;;;;12.15;5.15;;;;;;;2.18;83.42;102296.30;1609154;89;21506;-72
2022/01/19 01:32:51;;;;;;;12.93;4.87;;;;;;;2.18;83.45;102283.55;1601082;89;21572;-72
2022/01/19 01:35:17;;;;;;;11.08;4.50;;;;;;;2.18;83.51;102279.72;1585648;89;21162;-72
2022/01/19 01:37:43;;;;;;;14.38;4.42;;;;;;;2.20;83.50;102278.98;1595745;88;21680;-72
2022/01/19 01:40:13;;;;;;;10.90;4.20;;;;;;;2.21;83.49;102269.24;1602152;89;21678;-72
2022/01/19 01:42:38;;;;;;;10.93;4.87;;;;;;;2.21;83.51;102267.09;1617881;86;302413;-72
2022/01/19 01:45:11;;;;;;;8.03;4.33;;;;;;;2.21;83.50;102260.31;1619381;87;21580;-72
2022/01/19 01:47:40;;;;;;;10.88;4.78;;;;;;;2.21;83.50;102259.03;1603367;89;21585;-72
2022/01/19 01:55:17;;;;;;;12.73;4.90;;;;;;;2.23;83.55;102238.69;1621282;88;21345;-72
2022/01/19 01:57:43;;;;;;;13.83;5.83;;;;;;;2.24;83.53;102232.38;1612945;88;21535;-72
2022/01/19 02:00:14;;;;;;;11.25;6.17;;;;;;;2.23;83.56;102231.03;1614679;87;21556;-72
2022/01/19 02:02:40;;;;;;;20.48;8.23;;;;;;;2.25;83.60;102230.70;1610068;88;21571;-72
2022/01/19 02:05:11;;;;;;;;;;;;;;;2.25;83.58;102215.38;1624343;88;21564;-72
2022/01/19 02:08:00;;;;;;;22.32;8.03;;;;;;;2.26;83.66;102212.02;1614021;88;20625;-72
2022/01/19 02:10:31;;;;;;;19.42;7.95;;;;;;;2.27;83.59;102209.95;1620262;86;21045;-72
2022/01/19 02:15:55;;;;;;;15.10;5.47;;;;;;;2.29;83.63;102223.23;1652162;86;21034;-72
2022/01/19 02:23:50;;;;;;;18.00;7.12;;;;;;;2.32;83.64;102230.16;1652092;86;21074;-72
2022/01/19 02:26:23;;;;;;;22.02;7.50;;;;;;;2.34;83.68;102225.99;1653213;85;21055;-72
2022/01/19 02:42:06;;;;;;;27.10;9.23;;;;;;;2.43;83.69;102168.08;1650392;86;21077;-72
2022/01/19 02:49:53;;;;;;;18.15;6.30;;;;;;;2.50;83.81;102159.87;1594499;88;21243;-72
2022/01/19 02:52:22;;;;;;;24.43;8.13;;;;;;;2.51;83.81;102156.11;1649616;86;21029;-72
2022/01/19 02:54:49;;;;;;;25.97;10.35;;;;;;;2.53;83.79;102153.61;1651547;86;21417;-72
2022/01/19 02:57:16;;;;;;;14.95;6.85;;;;;;;2.55;83.77;102152.87;1624682;88;21465;-72
2022/01/19 03:06:15;;;;;;;;;;;;;;;2.57;83.79;102147.42;1653943;86;21383;-72
2022/01/19 03:10:24;;;;;;;11.68;5.62;;;;;;;2.68;83.85;102132.91;1648368;86;20989;-72
2022/01/19 03:12:50;;;;;;;18.85;7.08;;;;;;;2.69;83.84;102126.99;1650002;86;21011;-72
2022/01/19 03:15:17;;;;;;;17.00;5.83;;;;;;;2.71;83.87;102131.76;1649286;86;21537;-72
2022/01/19 03:17:43;;;;;;;14.35;5.37;;;;;;;2.72;83.85;102125.84;1650152;86;21573;-72
2022/01/19 03:20:12;;;;;;;12.33;6.07;;;;;;;2.74;83.90;102121.26;1649440;86;20908;-72
2022/01/19 03:22:58;;;;;;;10.18;5.55;;;;;;;2.78;83.89;102120.98;1622658;87;22233;-72
2022/01/19 03:25:14;;;;;;;;;;;;;;;2.80;83.87;102114.25;1597069;88;21612;-72
2022/01/19 03:27:45;;;;;;;8.55;4.87;;;;;;;2.81;83.90;102108.33;1614493;88;20694;-72
2022/01/19 03:30:10;;;;;;;12.15;6.15;;;;;;;2.81;83.86;102107.92;1608238;88;21126;-72
2022/01/19 03:32:36;;;;;;;11.48;5.33;;;;;;;2.83;83.93;102097.77;1621018;87;21059;-72
2022/01/19 03:35:03;;;;;;;13.73;6.03;;;;;;;2.83;83.92;102098.64;1603552;87;21007;-72
2022/01/19 03:37:29;;;;;;;21.45;7.30;;;;;;;2.86;83.93;102096.61;1604206;89;21722;-72
2022/01/19 03:39:55;;;;;;;23.67;7.07;;;;;;;2.87;83.89;102090.69;1604951;88;20950;-72
2022/01/19 03:42:21;;;;;;;21.43;8.07;;;;;;;2.89;83.96;102083.95;1602400;88;21773;-72
2022/01/19 03:44:47;;;;;;;19.17;8.45;;;;;;;2.91;83.93;102084.88;1606239;88;21078;-72
2022/01/19 03:47:13;;;;;;;24.20;9.07;;;;;;;2.92;83.94;102076.41;1617929;88;20927;-72
2022/01/19 03:49:40;;;;;;;23.80;8.55;;;;;;;2.94;83.93;102079.89;1605728;88;21223;-72
2022/01/19 03:52:07;;;;;;;22.95;8.88;;;;;;;2.95;83.96;102073.56;1606195;88;21445;-72
2022/01/19 03:54:38;;;;;;;20.95;7.75;;;;;;;2.96;83.94;102070.20;1607656;87;21599;-72
2022/01/19 03:57:05;;;;;;;15.50;6.58;;;;;;;2.96;83.94;102067.64;1652366;86;21475;-72
2022/01/19 03:59:31;;;;;;;;;;;;;;;2.97;83.95;102071.07;1654149;86;21137;-72
2022/01/19 04:01:58;;;;;;;12.63;5.58;;;;;;;2.98;84.00;102072.41;1649960;86;20191;-72
2022/01/19 04:07:02;;;;;;;8.78;4.65;;;;;;;2.98;83.94;102071.13;1543246;91;21456;-72
2022/01/19 04:09:27;;;;;;;12.43;5.72;;;;;;;2.97;83.95;102063.00;1471782;96;21875;-72
2022/01/19 04:11:54;;;;;;;11.48;5.70;;;;;;;2.98;83.97;102060.04;1489356;95;21063;-72
2022/01/19 04:14:24;;;;;;;14.65;6.45;;;;;;;2.98;83.96;102056.20;1556553;91;21546;-72
2022/01/19 04:16:55;;;;;;;13.25;6.12;;;;;;;2.97;83.98;102051.91;1556278;91;21157;-72
2022/01/19 04:19:25;;;;;;;11.70;5.10;;;;;;;2.98;83.98;102052.38;1544744;90;21602;-72
2022/01/19 04:21:51;;;;;;;12.47;5.35;;;;;;;2.99;83.99;102042.62;1484040;94;22279;-72
2022/01/19 04:24:19;;;;;;;9.65;5.50;;;;;;;2.98;83.99;102032.80;1490993;94;21499;-72
2022/01/19 04:26:48;;;;;;;12.10;5.75;;;;;;;2.99;84.02;102031.13;1491645;95;21479;-72
2022/01/19 04:29:13;;;;;;;8.15;5.70;;;;;;;2.99;84.01;102026.01;1558048;91;21000;-72
2022/01/19 04:31:40;;;;;;;14.83;5.53;;;;;;;2.99;83.97;102026.87;1558284;91;21442;-72
2022/01/19 04:34:07;;;;;;;10.98;6.42;;;;;;;2.99;84.01;102019.22;1539025;91;21452;-72
2022/01/19 04:36:48;;;;;;;14.47;6.92;;;;;;;3.00;84.05;102020.09;1550333;91;21452;-72
2022/01/19 04:47:39;;;;;;;19.50;8.40;;;;;;;3.06;84.04;102011.78;1543763;91;21023;-72
2022/01/19 05:03:22;;;;;;;16.80;7.05;;;;;;;3.05;84.07;102004.52;1512463;93;21568;-72
2022/01/19 05:05:50;;;;;;;14.28;6.08;;;;;;;3.05;84.14;102002.38;1507047;92;21898;-72
2022/01/19 05:08:18;;;;;;;18.52;6.10;;;;;;;3.06;84.14;102004.98;1512823;94;21596;-72
2022/01/19 05:13:33;;;;;;;13.53;6.58;;;;;;;3.07;84.16;101999.47;1552554;90;21655;-72
2022/01/19 05:15:53;;;;;;;18.95;8.45;;;;;;;3.09;84.17;102003.81;1520016;92;21102;-72
2022/01/19 05:18:20;;;;;;;19.00;9.48;;;;;;;3.09;84.16;102001.67;1540459;92;21645;-72
2022/01/19 05:20:47;;;;;;;;;;;;;;;3.09;84.19;102003.81;1559312;91;21480;-72
2022/01/19 05:23:14;;;;;;;33.67;14.15;;;;;;;3.12;84.24;102003.06;1557520;92;20485;-72
2022/01/19 05:25:41;;;;;;;25.35;12.30;;;;;;;3.13;84.20;101991.98;1548216;91;21493;-72
2022/01/19 05:28:07;;;;;;;31.80;13.80;;;;;;;3.11;84.19;101991.97;1526736;91;21446;-72
2022/01/19 05:30:33;;;;;;;;;;;;;;;3.12;84.20;101997.95;1541188;90;21634;-72
2022/01/19 05:32:59;;;;;;;28.40;12.33;;;;;;;3.13;84.22;101997.10;1544521;91;20764;-72
2022/01/19 05:35:27;;;;;;;34.23;12.73;;;;;;;3.11;84.16;101991.97;1549865;90;21617;-72
2022/01/19 05:37:54;;;;;;;26.37;10.80;;;;;;;3.10;84.18;101995.34;1536917;91;21957;-72
2022/01/19 05:40:21;;;;;;;21.12;10.28;;;;;;;3.11;84.20;101991.09;1530677;91;21661;-72
2022/01/19 05:42:49;;;;;;;23.45;8.98;;;;;;;3.11;84.21;101989.81;1539965;91;21133;-72
2022/01/19 05:45:17;;;;;;;15.83;7.42;;;;;;;3.11;84.17;101980.88;1527184;90;21841;-72
2022/01/19 05:47:43;;;;;;;16.97;7.35;;;;;;;3.12;84.19;101976.23;1545944;91;21158;-72
2022/01/19 05:50:09;;;;;;;;;;;;;;;3.11;84.19;101982.16;1561838;91;21094;-72
2022/01/19 05:52:35;;;;;;;22.85;8.70;;;;;;;3.11;84.20;101982.16;1533592;91;20501;-72
2022/01/19 05:55:02;;;;;;;24.75;11.50;;;;;;;3.11;84.25;101982.16;1546712;91;21610;-72
2022/01/19 05:57:28;;;;;;;29.55;11.63;;;;;;;3.11;84.21;101975.77;1536468;91;21488;-72
2022/01/19 05:59:54;;;;;;;26.87;9.87;;;;;;;3.10;84.19;101973.61;1553048;91;21688;-72
2022/01/19 06:02:20;;;;;;;21.63;8.83;;;;;;;3.10;84.25;101971.47;1549034;90;20911;-72
2022/01/19 06:04:46;;;;;;;19.40;9.88;;;;;;;3.09;84.21;101968.45;1559485;90;21015;-72
2022/01/19 06:07:12;;;;;;;16.50;7.97;;;;;;;3.10;84.24;101968.50;1540799;90;21034;-73
2022/01/19 06:12:11;;;;;;;13.70;7.87;;;;;;;3.10;84.26;101958.28;1540498;91;20967;-72
2022/01/19 06:14:41;;;;;;;16.00;9.23;;;;;;;3.11;84.26;101951.48;1560296;91;21003;-72
2022/01/19 06:17:12;;;;;;;26.27;10.10;;;;;;;3.11;84.26;101946.38;1560475;90;21384;-72
2022/01/19 06:19:39;;;;;;;41.73;12.95;;;;;;;3.10;84.27;101949.75;1543601;90;21479;-72
2022/01/19 06:22:05;;;;;;;75.95;21.15;;;;;;;3.09;84.30;101956.55;1532987;91;20982;-73
2022/01/19 06:24:31;;;;;;;;;;;;;;;3.09;84.27;101952.71;1545143;90;20982;-72
2022/01/19 06:26:58;;;;;;;63.25;20.80;;;;;;;3.10;84.30;101950.61;1536394;91;20434;-72
2022/01/19 06:29:24;;;;;;;35.92;15.38;;;;;;;3.11;84.27;101948.52;1544045;91;20998;-72
2022/01/19 06:31:50;;;;;;;31.42;14.33;;;;;;;3.10;84.28;101949.34;1539381;91;21495;-72
2022/01/19 06:34:17;;;;;;;33.02;15.40;;;;;;;3.10;84.27;101945.91;1530731;91;21020;-72
2022/01/19 06:36:43;;;;;;;33.65;14.50;;;;;;;3.10;84.27;101945.91;1537032;91;21061;-72
2022/01/19 06:39:09;;;;;;;28.67;13.65;;;;;;;3.09;84.28;101933.95;1548216;90;20955;-72
2022/01/19 06:41:35;;;;;;;25.10;12.40;;;;;;;3.10;84.31;101930.58;1538701;90;20927;-71
2022/01/19 06:44:02;;;;;;;18.20;11.30;;;;;;;3.09;84.27;101925.88;1538479;91;20971;-71
2022/01/19 06:46:28;;;;;;;23.27;10.90;;;;;;;3.07;84.25;101931.34;1538999;91;21538;-71
2022/01/19 06:48:54;;;;;;;19.50;11.00;;;;;;;3.06;84.25;101923.21;1545371;91;20954;-71
2022/01/19 06:51:20;;;;;;;20.12;10.88;;;;;;;3.06;84.27;101918.52;1537797;90;21485;-71
2022/01/19 06:53:46;;;;;;;20.30;11.83;;;;;;;3.04;84.28;101915.90;1544471;91;20974;-71
2022/01/19 06:56:12;;;;;;;18.35;10.78;;;;;;;3.03;84.29;101907.77;1545305;90;21471;-71
2022/01/19 06:58:38;;;;;;;27.13;14.23;;;;;;;3.03;84.29;101903.07;1553151;89;21038;-71
2022/01/19 07:01:04;;;;;;;31.47;17.43;;;;;;;3.00;84.30;101894.89;1537679;91;21748;-71
2022/01/19 07:03:32;;;;;;;31.73;15.53;;;;;;;2.91;84.29;101878.83;1557129;91;21922;-71
2022/01/19 07:06:00;;;;;;;21.80;12.98;;;;;;;3.01;84.30;101893.20;1545110;91;21673;-71
2022/01/19 07:08:28;;;;;;;16.57;11.15;;;;;;;2.99;84.32;101891.47;1535036;89;21640;-71
2022/01/19 07:10:54;;;;;;;20.52;11.00;;;;;;;2.98;84.25;101885.02;1552152;91;21054;-72
2022/01/19 07:13:22;;;;;;;16.57;10.08;;;;;;;2.96;84.29;101880.27;1531113;91;21057;-71
2022/01/19 07:15:49;;;;;;;19.15;10.08;;;;;;;2.96;84.34;101884.09;1546397;91;26652;-71
2022/01/19 07:18:16;;;;;;;16.12;9.80;;;;;;;2.96;84.33;101878.98;1530638;91;21174;-71
2022/01/19 07:20:41;;;;;;;;;;;;;;;2.95;84.30;101886.19;1541273;91;21630;-72
2022/01/19 07:23:08;;;;;;;17.52;11.75;;;;;;;2.93;84.33;101874.64;1556285;91;20710;-71
2022/01/19 07:25:34;;;;;;;;;;;;;;;2.92;84.29;101874.59;1535248;91;21419;-71
2022/01/19 07:28:01;;;;;;;19.05;10.88;;;;;;;2.90;84.34;101867.28;1542550;91;20099;-71
2022/01/19 07:30:28;;;;;;;14.35;9.63;;;;;;;2.91;84.35;101867.73;1530076;91;21002;-71
2022/01/19 07:32:54;;;;;;;13.75;8.50;;;;;;;2.89;84.36;101861.70;1538785;91;21448;-71
2022/01/19 07:35:20;;;;;;;11.60;7.72;;;;;;;2.88;84.33;101867.63;1546255;90;21001;-71
2022/01/19 07:37:46;;;;;;;17.23;9.23;;;;;;;2.87;84.30;101859.09;1550309;91;20978;-71
2022/01/19 07:40:13;;;;;;;12.70;8.65;;;;;;;2.85;84.31;101856.03;1578299;89;21423;-71
2022/01/19 07:42:39;;;;;;;14.65;9.13;;;;;;;2.84;84.33;101849.18;1570660;89;21008;-71
2022/01/19 07:45:06;;;;;;;9.60;6.65;;;;;;;2.85;84.37;101847.95;1585814;89;20967;-71
2022/01/19 07:47:33;;;;;;;13.55;8.58;;;;;;;2.86;84.38;101853.94;1585089;89;21427;-71
2022/01/19 07:49:59;;;;;;;12.98;7.37;;;;;;;2.86;84.39;101855.21;1561545;89;21030;-71
2022/01/19 07:52:26;;;;;;;10.05;7.80;;;;;;;2.86;84.38;101848.83;1580306;89;21433;-71
2022/01/19 07:54:53;;;;;;;14.80;7.78;;;;;;;2.87;84.41;101846.73;1576483;89;21482;-71
2022/01/19 07:57:19;;;;;;;13.05;7.75;;;;;;;2.89;84.43;101842.55;1547136;91;20943;-71
2022/01/19 07:59:46;;;;;;;12.55;7.40;;;;;;;2.90;84.42;101836.63;1575870;89;20951;-71
2022/01/19 08:02:12;;;;;;;14.03;7.30;;;;;;;2.91;84.41;101828.14;1579869;89;20971;-71
2022/01/19 08:04:39;;;;;;;14.28;8.03;;;;;;;2.94;84.43;101825.70;1510964;92;21440;-71
2022/01/19 08:07:06;;;;;;;20.48;8.58;;;;;;;2.94;84.39;101822.73;1578541;89;21525;-71
2022/01/19 08:09:32;;;;;;;17.95;9.00;;;;;;;2.96;84.39;101815.12;1580486;89;21502;-71
2022/01/19 08:11:58;;;;;;;18.70;10.20;;;;;;;2.94;84.37;101816.75;1580051;89;21524;-71
2022/01/19 08:14:24;;;;;;;22.90;10.43;;;;;;;2.97;84.46;101823.24;1568565;89;21569;-71
2022/01/19 08:16:53;;;;;;;24.52;10.03;;;;;;;2.98;84.39;101821.16;1570174;89;21013;-71
2022/01/19 08:19:19;;;;;;;18.02;9.20;;;;;;;2.99;84.39;101813.95;1576928;89;21542;-71
2022/01/19 08:21:45;;;;;;;22.42;9.73;;;;;;;2.98;84.38;101802.86;1586681;89;21557;-71
2022/01/19 08:24:11;;;;;;;15.83;8.40;;;;;;;3.00;84.41;101801.63;1584371;89;21493;-71
2022/01/19 08:26:38;;;;;;;11.50;7.75;;;;;;;3.03;84.42;101799.59;1578920;89;21597;-71
2022/01/19 08:29:05;;;;;;;15.53;7.87;;;;;;;3.06;84.44;101795.86;1579040;89;20945;-71
2022/01/19 08:31:33;;;;;;;15.32;7.10;;;;;;;3.08;84.45;101795.50;1575143;89;21116;-71
2022/01/19 08:33:59;;;;;;;16.62;7.20;;;;;;;3.06;84.39;101789.06;1583628;89;21490;-71
2022/01/19 08:36:26;;;;;;;14.95;6.87;;;;;;;3.08;84.39;101782.73;1584565;89;21073;-71
2022/01/19 08:38:53;;;;;;;16.87;8.33;;;;;;;3.07;84.36;101783.55;1578751;89;20981;-71
2022/01/19 08:41:19;;;;;;;16.82;7.72;;;;;;;3.08;84.45;101779.77;1591236;89;20938;-71
2022/01/19 08:43:45;;;;;;;12.40;6.95;;;;;;;3.11;84.43;101778.59;1588492;88;21133;-71
2022/01/19 08:46:11;;;;;;;16.23;7.65;;;;;;;3.13;84.45;101767.97;1569910;89;21072;-72
2022/01/19 08:48:37;;;;;;;9.60;6.33;;;;;;;3.15;84.43;101764.19;1566855;89;21113;-74
2022/01/19 08:51:04;;;;;;;14.10;8.13;;;;;;;3.16;84.44;101758.27;1520265;91;21905;-74
2022/01/19 08:53:32;;;;;;;13.22;7.28;;;;;;;3.18;84.43;101751.52;1586843;89;21469;-74
2022/01/19 08:55:59;;;;;;;15.13;8.03;;;;;;;3.18;84.44;101752.38;1579809;89;20911;-74
2022/01/19 08:58:25;;;;;;;12.47;7.60;;;;;;;3.20;84.44;101744.36;1573947;89;21068;-74
2022/01/19 09:00:51;;;;;;;14.65;7.58;;;;;;;3.23;84.50;101733.36;1569997;89;20953;-74
2022/01/19 09:03:18;;;;;;;13.20;7.90;;;;;;;3.27;84.45;101732.64;1536180;91;21472;-74
2022/01/19 09:05:45;;;;;;;13.55;8.33;;;;;;;3.29;84.47;101733.14;1576383;89;21611;-74
2022/01/19 09:08:12;;;;;;;11.35;7.50;;;;;;;3.31;84.44;101728.95;1533801;91;21420;-74
2022/01/19 09:10:40;;;;;;;19.27;9.48;;;;;;;3.31;84.40;101727.67;1586158;89;27097;-74
2022/01/19 09:13:09;;;;;;;13.48;7.97;;;;;;;3.33;84.44;101727.72;1593697;89;21402;-74
2022/01/19 09:15:36;;;;;;;16.82;9.10;;;;;;;3.32;84.41;101726.85;1566131;89;21483;-74
2022/01/19 09:18:03;;;;;;;18.23;8.63;;;;;;;3.33;84.40;101729.00;1577493;89;21405;-74
2022/01/19 09:20:36;;;;;;;16.90;9.33;;;;;;;3.35;84.44;101722.66;1592031;89;21537;-74
2022/01/19 09:23:02;;;;;;;14.55;7.28;;;;;;;3.37;84.46;101728.69;1528371;91;20958;-75
2022/01/19 09:25:29;;;;;;;16.55;9.55;;;;;;;3.37;84.46;101722.30;1594492;89;21810;-75
2022/01/19 09:27:55;;;;;;;13.88;9.45;;;;;;;3.39;84.44;101722.80;1587073;89;20921;-75
2022/01/19 09:30:24;;;;;;;15.18;10.03;;;;;;;3.40;84.47;101714.31;1584307;89;21427;-75
2022/01/19 09:33:07;;;;;;;20.82;9.58;;;;;;;3.42;84.48;101719.47;1586468;89;20977;-75
2022/01/19 09:35:26;;;;;;;20.77;10.55;;;;;;;3.42;84.44;101709.24;1575016;89;20994;-75
2022/01/19 09:37:53;;;;;;;18.20;9.55;;;;;;;3.42;84.47;101707.97;1558428;89;21585;-75
2022/01/19 09:40:19;;;;;;;15.53;9.88;;;;;;;3.41;84.46;101710.93;1581727;89;21454;-75
2022/01/19 09:42:46;;;;;;;12.45;10.38;;;;;;;3.40;84.42;101705.77;1587697;89;20907;-75
2022/01/19 09:45:12;;;;;;;19.37;9.93;;;;;;;3.39;84.40;101704.91;1582036;89;21577;-74
2022/01/19 09:47:39;;;;;;;;;;;;;;;3.38;84.43;101699.74;1557605;91;21007;-74
2022/01/19 09:50:06;;;;;;;18.12;9.95;;;;;;;3.38;84.43;101697.19;1592498;89;26024;-74
2022/01/19 09:52:33;;;;;;;17.55;9.65;;;;;;;3.36;84.43;101700.97;1587141;89;20909;-74
2022/01/19 09:54:59;;;;;;;;;;;;;;;3.37;84.47;101701.84;1599891;89;21458;-74
2022/01/19 09:57:25;;;;;;;16.73;11.20;;;;;;;3.36;84.51;101690.75;1582721;89;20786;-75
2022/01/19 09:59:51;;;;;;;19.42;10.15;;;;;;;3.39;84.50;101693.81;1581101;89;21419;-74
2022/01/19 10:02:17;;;;;;;19.32;10.90;;;;;;;3.39;84.51;101684.86;1591961;89;21581;-74
2022/01/19 10:04:47;;;;;;;17.48;10.30;;;;;;;3.40;84.52;101680.20;1535546;91;21491;-74
2022/01/19 10:07:20;;;;;;;157.00;77.80;;;;;;;3.41;84.51;101679.38;1545428;91;21423;-74
2022/01/19 10:10:03;;;;;;;22.22;10.88;;;;;;;3.42;84.49;101678.56;1540302;91;21012;-74
2022/01/19 10:18:21;;;;;;;21.40;9.78;;;;;;;3.41;84.48;101684.09;1548042;91;21500;-74
2022/01/19 10:21:04;;;;;;;23.50;11.80;;;;;;;3.42;84.51;101677.28;1535844;92;21016;-74
2022/01/19 10:23:46;;;;;;;18.87;11.00;;;;;;;3.47;84.53;101669.34;1576707;89;37625;-74
2022/01/19 10:26:15;;;;;;;21.57;11.57;;;;;;;3.50;84.52;101663.91;1586744;89;21060;-74
2022/01/19 10:29:07;;;;;;;18.00;9.33;;;;;;;3.55;84.52;101664.05;1582366;89;21200;-74
2022/01/19 10:31:38;;;;;;;15.65;10.18;;;;;;;3.58;84.50;101649.66;1543199;91;21655;-74
2022/01/19 10:34:23;;;;;;;13.85;9.03;;;;;;;3.61;84.50;101643.36;1586922;89;21418;-74
2022/01/19 10:36:53;;;;;;;16.25;9.65;;;;;;;3.63;84.48;101633.17;1573083;89;21352;-74
2022/01/19 10:39:22;;;;;;;15.63;10.25;;;;;;;3.69;84.55;101627.33;1584798;89;20926;-74
2022/01/19 10:42:10;;;;;;;24.80;10.38;;;;;;;3.74;84.49;101620.24;1580921;89;21579;-74
2022/01/19 10:44:42;;;;;;;24.92;18.87;;;;;;;3.77;84.51;101615.21;1580307;89;21523;-74
2022/01/19 10:47:10;;;;;;;21.17;10.28;;;;;;;3.81;84.49;101608.48;1578687;89;20918;-74
2022/01/19 10:49:57;;;;;;;17.52;9.50;;;;;;;3.84;84.51;101605.60;1574032;89;21914;-74
2022/01/19 10:52:37;;;;;;;16.95;9.48;;;;;;;3.87;84.46;101598.42;1539578;91;21456;-74
2022/01/19 10:55:08;;;;;;;263.80;245.63;;;;;;;3.89;84.49;101597.64;1571814;89;20985;-74
2022/01/19 10:57:37;;;;;;;135.57;126.58;;;;;;;3.95;84.51;101596.52;1570721;89;21548;-74
2022/01/19 11:00:29;;;;;;;16.48;9.25;;;;;;;3.99;84.49;101585.55;1571212;89;21053;-74
2022/01/19 11:03:17;;;;;;;15.93;9.43;;;;;;;4.00;84.44;101577.45;1542739;91;20955;-74
2022/01/19 11:05:50;;;;;;;17.45;11.18;;;;;;;4.06;84.50;101572.91;1580222;89;20986;-75
2022/01/19 11:08:19;;;;;;;16.20;11.75;;;;;;;4.09;84.44;101564.03;1582383;89;20985;-75
2022/01/19 11:10:49;;;;;;;18.48;11.15;;;;;;;4.10;84.42;101558.09;1575350;89;21414;-75
2022/01/19 11:13:34;;;;;;;17.32;12.15;;;;;;;4.08;84.35;101552.06;1578310;89;21009;-75
2022/01/19 11:16:02;;;;;;;21.02;11.68;;;;;;;4.05;84.38;101541.33;1581000;89;20962;-75
2022/01/19 11:18:29;;;;;;;20.20;12.47;;;;;;;4.08;84.46;101537.98;1573049;89;20942;-75
2022/01/19 11:21:02;;;;;;;23.87;11.93;;;;;;;4.11;84.45;101539.34;1570580;89;20993;-75
2022/01/19 11:24:21;;;;;;;25.20;13.05;;;;;;;4.09;84.40;101540.59;1581402;89;20994;-75
2022/01/19 11:26:48;;;;;;;19.92;11.33;;;;;;;4.08;84.41;101532.45;1548792;90;21409;-75
2022/01/19 11:29:19;;;;;;;16.67;11.15;;;;;;;4.11;84.47;101523.98;1580571;89;20974;-74
2022/01/19 11:31:47;;;;;;;19.80;12.55;;;;;;;4.15;84.48;101516.84;1594504;89;20906;-74
2022/01/19 11:34:15;;;;;;;18.57;11.83;;;;;;;4.17;84.47;101510.89;1588059;89;21461;-75
2022/01/19 11:36:42;;;;;;;18.73;12.25;;;;;;;4.19;84.42;101502.84;1588949;88;21454;-75
2022/01/19 11:39:21;;;;;;;22.13;11.75;;;;;;;4.19;84.41;101498.14;1601688;88;20937;-75
2022/01/19 11:42:02;;;;;;;22.52;12.50;;;;;;;4.19;84.38;101486.62;1589252;88;21482;-75
2022/01/19 11:44:37;;;;;;;18.57;11.08;;;;;;;4.21;84.42;101485.83;1588202;88;21402;-75
2022/01/19 11:47:18;;;;;;;23.07;16.15;;;;;;;4.23;84.44;101476.91;1588989;88;20973;-73
2022/01/19 11:49:58;;;;;;;19.73;11.57;;;;;;;4.26;84.46;101476.56;1590534;88;20921;-74
2022/01/19 11:52:39;;;;;;;130.72;27.67;;;;;;;4.29;84.42;101466.81;1590826;88;20928;-74
2022/01/19 11:55:20;;;;;;;19.50;11.33;;;;;;;4.32;84.43;101471.59;1581879;88;20938;-74
2022/01/19 11:57:50;;;;;;;21.30;11.57;;;;;;;4.33;84.43;101461.80;1588084;88;21175;-74
2022/01/19 12:00:24;;;;;;;16.85;10.88;;;;;;;4.35;84.42;101447.75;1556556;90;21437;-74
2022/01/19 12:02:54;;;;;;;22.77;12.00;;;;;;;4.35;84.39;101434.95;1592025;88;20949;-74
2022/01/19 12:05:31;;;;;;;18.73;10.58;;;;;;;4.35;84.35;101431.11;1587299;88;21052;-74
2022/01/19 12:08:30;;;;;;;17.82;11.35;;;;;;;4.35;84.38;101426.40;1582339;88;21009;-74
2022/01/19 12:11:16;;;;;;;16.57;11.55;;;;;;;4.39;84.44;101415.40;1582380;88;21079;-74
2022/01/19 12:19:13;;;;;;;17.20;11.05;;;;;;;4.37;84.34;101398.72;1595695;88;21076;-73
2022/01/19 12:21:48;;;;;;;16.87;11.15;;;;;;;4.40;84.38;101388.96;1589310;88;20972;-74
2022/01/19 12:24:32;;;;;;;18.60;10.88;;;;;;;4.42;84.41;101375.36;1580310;87;601269;-74
2022/01/19 12:27:19;;;;;;;18.67;11.40;;;;;;;4.44;84.38;101372.42;1574330;88;21048;-74
2022/01/19 12:29:53;;;;;;;23.35;12.63;;;;;;;4.45;84.38;101363.03;1584070;89;21086;-74
2022/01/19 12:32:27;;;;;;;19.25;12.40;;;;;;;4.46;84.38;101352.83;1573035;88;21096;-74
2022/01/19 12:34:59;;;;;;;30.30;22.75;;;;;;;4.44;84.34;101340.41;1591540;88;21586;-74
2022/01/19 12:37:36;;;;;;;17.32;11.70;;;;;;;4.42;84.35;101340.80;1568604;89;20909;-74
2022/01/19 12:40:21;;;;;;;18.65;13.22;;;;;;;4.43;84.37;101331.00;1588068;88;21064;-71
2022/01/19 12:42:56;;;;;;;21.45;14.85;;;;;;;4.44;84.36;101316.08;1561035;90;21401;-73
2022/01/19 12:45:26;;;;;;;21.65;13.00;;;;;;;4.40;84.26;101318.13;1523703;92;21100;-73
2022/01/19 12:48:05;;;;;;;19.75;12.25;;;;;;;4.40;84.31;101311.73;1568003;90;21078;-73
2022/01/19 12:50:40;;;;;;;24.40;14.00;;;;;;;4.40;84.29;101307.03;1587724;88;20930;-73
2022/01/19 12:53:12;;;;;;;24.05;13.83;;;;;;;4.40;84.29;101307.03;1590278;88;21016;-73
2022/01/19 12:55:42;;;;;;;18.90;13.15;;;;;;;4.38;84.31;101295.48;1583799;89;20965;-73
2022/01/19 12:58:19;;;;;;;19.35;12.50;;;;;;;4.38;84.31;101289.08;1598181;88;21477;-73
2022/01/19 13:00:54;;;;;;;20.68;12.47;;;;;;;4.38;84.31;101283.09;1581853;88;21794;-73
2022/01/19 13:03:24;;;;;;;24.75;13.70;;;;;;;4.38;84.31;101267.73;1597573;88;20958;-73
2022/01/19 13:06:04;;;;;;;19.40;13.05;;;;;;;4.36;84.30;101262.58;1589282;88;21441;-73